Terminal Aerodrome Forecast
Issued by NWS

Home | Current Version | Previous Version | Text Only | Print | Product List | Glossary On
Versions: 1 2 3 4 5 6 7 8 9 10 11 12 13 14 15 16
000
FTUS45 KABQ 252300
TAFLVS
TAF
KLVS 252339Z 2600/2624 25015G25KT P6SM SCT080
     FM260200 24010KT P6SM SCT070
     FM261100 21008KT P6SM BKN060
     FM261900 21013G23KT 5SM -TSRA OVC035CB
     FM262300 21013KT 5SM -RA OVC015=

USA.gov is the U.S. government's official web portal to all federal, state and local government web resources and services.